createdAt,value
2018-12-18T00:00:29.529Z,163.87
2018-12-18T00:03:00.018Z,158.37
2018-12-18T00:05:35.554Z,177.83
2018-12-18T00:08:06.577Z,171.20
2018-12-18T00:10:42.080Z,163.93
2018-12-18T00:13:12.479Z,167.63
2018-12-18T00:15:42.995Z,174.23
2018-12-18T00:18:13.360Z,168.97
2018-12-18T00:20:43.756Z,172.80
2018-12-18T00:23:14.186Z,169.60
2018-12-18T00:25:44.605Z,174.80
2018-12-18T00:28:15.085Z,171.63
2018-12-18T00:30:45.557Z,156.33
2018-12-18T00:33:15.798Z,154.83
2018-12-18T00:35:46.097Z,157.47
2018-12-18T00:38:16.460Z,173.13
2018-12-18T00:40:46.761Z,161.53
2018-12-18T00:43:17.177Z,165.87
2018-12-18T00:45:46.948Z,161.67
2018-12-18T00:48:17.214Z,155.43
2018-12-18T00:50:47.508Z,180.03
2018-12-18T00:53:18.017Z,180.40
2018-12-18T00:55:48.523Z,194.63
2018-12-18T00:58:18.692Z,195.23
2018-12-18T01:00:49.029Z,213.67
2018-12-18T01:03:19.345Z,213.70
2018-12-18T01:05:49.722Z,196.23
2018-12-18T01:08:20.150Z,180.90
2018-12-18T01:10:50.612Z,172.53
2018-12-18T01:13:20.930Z,183.27
2018-12-18T01:15:51.266Z,183.30
2018-12-18T01:18:21.729Z,183.67
2018-12-18T01:20:52.137Z,179.00
2018-12-18T01:23:21.944Z,175.63
2018-12-18T01:25:52.140Z,164.73
2018-12-18T01:28:22.488Z,171.07
2018-12-18T01:30:52.913Z,149.77
2018-12-18T01:33:23.175Z,169.57
2018-12-18T01:35:53.437Z,165.07
2018-12-18T01:38:23.961Z,167.00
2018-12-18T01:40:54.262Z,176.77
2018-12-18T01:43:24.958Z,162.10
2018-12-18T01:45:55.478Z,146.60
2018-12-18T01:48:25.821Z,143.67
2018-12-18T01:50:56.216Z,128.37
2018-12-18T01:53:26.537Z,133.50
2018-12-18T01:55:56.961Z,126.07
2018-12-18T01:58:27.425Z,131.37
2018-12-18T02:00:57.667Z,139.80
2018-12-18T02:03:28.081Z,115.67
2018-12-18T02:05:58.365Z,123.23
2018-12-18T02:08:28.843Z,126.23
2018-12-18T02:10:59.213Z,122.93
2018-12-18T02:13:29.657Z,132.07
2018-12-18T02:16:00.019Z,129.47
2018-12-18T02:18:30.552Z,130.37
2018-12-18T02:21:00.893Z,122.97
2018-12-18T02:23:31.157Z,109.80
2018-12-18T02:26:01.493Z,128.63
2018-12-18T02:28:31.953Z,131.17
2018-12-18T02:31:02.180Z,130.67
2018-12-18T02:33:32.652Z,142.30
2018-12-18T02:36:03.029Z,142.80
2018-12-18T02:38:33.470Z,131.93
2018-12-18T02:41:03.726Z,129.20
2018-12-18T02:43:34.081Z,128.13
2018-12-18T02:46:04.522Z,120.73
2018-12-18T02:48:35.070Z,114.33
2018-12-18T02:51:05.426Z,113.73
2018-12-18T02:53:35.857Z,113.17
2018-12-18T02:56:06.185Z,120.77
2018-12-18T02:58:35.885Z,112.30
2018-12-18T03:01:06.193Z,114.07
2018-12-18T03:03:37.112Z,118.57
2018-12-18T03:06:07.865Z,114.70
2018-12-18T03:08:38.275Z,108.67
2018-12-18T03:11:08.683Z,111.90
2018-12-18T03:13:39.054Z,108.87
2018-12-18T03:16:09.598Z,112.70
2018-12-18T03:18:40.086Z,116.30
2018-12-18T03:21:10.594Z,113.80
2018-12-18T03:23:41.004Z,118.83
2018-12-18T03:26:11.668Z,110.80
2018-12-18T03:28:42.145Z,112.43
2018-12-18T03:31:12.414Z,113.50
2018-12-18T03:33:42.823Z,113.33
2018-12-18T03:36:13.152Z,106.37
2018-12-18T03:38:43.652Z,119.17
2018-12-18T03:41:14.036Z,125.80
2018-12-18T03:43:44.385Z,116.30
2018-12-18T03:46:14.757Z,116.37
2018-12-18T03:48:45.137Z,125.53
2018-12-18T03:51:15.606Z,117.23
2018-12-18T03:53:45.894Z,109.20
2018-12-18T03:56:16.180Z,122.13
2018-12-18T03:58:46.567Z,129.10
2018-12-18T04:01:16.978Z,111.90
2018-12-18T04:03:47.226Z,117.73
2018-12-18T04:06:17.519Z,121.83
2018-12-18T04:08:47.997Z,114.33
2018-12-18T04:11:18.514Z,113.67
2018-12-18T04:13:49.042Z,113.23
2018-12-18T04:16:19.308Z,119.33
2018-12-18T04:18:49.785Z,116.30
2018-12-18T04:21:20.085Z,119.00
2018-12-18T04:23:50.553Z,120.70
2018-12-18T04:26:21.190Z,128.33
2018-12-18T04:28:51.570Z,137.73
2018-12-18T04:31:21.977Z,127.57
2018-12-18T04:33:52.359Z,130.80
2018-12-18T04:36:22.841Z,126.10
2018-12-18T04:38:53.140Z,130.27
2018-12-18T04:41:23.452Z,132.53
2018-12-18T04:43:53.905Z,132.53
2018-12-18T04:46:24.271Z,126.83
2018-12-18T04:48:54.574Z,140.43
2018-12-18T04:51:24.877Z,129.27
2018-12-18T04:53:55.305Z,112.97
2018-12-18T04:56:25.636Z,113.37
2018-12-18T04:58:55.909Z,121.40
2018-12-18T05:01:26.189Z,116.77
2018-12-18T05:03:56.644Z,123.30
2018-12-18T05:06:26.895Z,130.77
2018-12-18T05:08:57.150Z,128.70
2018-12-18T05:11:27.465Z,123.23
2018-12-18T05:13:57.839Z,127.40
2018-12-18T05:16:28.202Z,122.30
2018-12-18T05:18:58.540Z,126.23
2018-12-18T05:21:28.863Z,110.90
2018-12-18T05:23:59.439Z,105.37
2018-12-18T05:26:29.801Z,111.53
2018-12-18T05:29:00.313Z,110.47
2018-12-18T05:31:30.616Z,119.20
2018-12-18T05:34:01.017Z,110.23
2018-12-18T05:36:31.572Z,112.03
2018-12-18T05:39:02.064Z,114.77
2018-12-18T05:41:32.485Z,121.77
2018-12-18T05:44:02.796Z,125.73
2018-12-18T05:46:33.112Z,124.17
2018-12-18T05:49:03.629Z,125.87
2018-12-18T05:51:33.977Z,121.33
2018-12-18T05:54:04.416Z,116.40
2018-12-18T05:56:34.837Z,109.27
2018-12-18T05:59:04.576Z,110.47
2018-12-18T06:01:34.757Z,112.73
2018-12-18T06:04:05.204Z,108.60
2018-12-18T06:06:35.510Z,121.40
2018-12-18T06:09:07.174Z,139.20
2018-12-18T06:11:37.612Z,140.93
2018-12-18T06:14:07.975Z,136.80
2018-12-18T06:16:38.312Z,114.70
2018-12-18T06:19:08.772Z,122.03
2018-12-18T06:21:39.156Z,116.23
2018-12-18T06:24:09.681Z,142.73
2018-12-18T06:26:40.100Z,133.47
2018-12-18T06:29:10.423Z,131.60
2018-12-18T06:31:40.958Z,139.27
2018-12-18T06:34:11.346Z,133.07
2018-12-18T06:36:41.761Z,156.63
2018-12-18T06:39:12.128Z,182.90
2018-12-18T06:41:42.524Z,198.83
2018-12-18T06:44:12.882Z,180.03
2018-12-18T06:46:43.145Z,204.90
2018-12-18T06:49:13.492Z,162.23
2018-12-18T06:51:43.749Z,174.80
2018-12-18T06:54:14.158Z,171.93
2018-12-18T06:56:44.529Z,144.57
2018-12-18T06:59:15.029Z,139.77
2018-12-18T07:01:45.397Z,135.73
2018-12-18T07:04:15.936Z,155.33
2018-12-18T07:06:46.277Z,162.27
2018-12-18T07:09:16.694Z,164.93
2018-12-18T07:11:46.931Z,171.13
2018-12-18T07:14:17.351Z,155.40
2018-12-18T07:16:48.038Z,157.10
2018-12-18T07:19:18.574Z,146.03
2018-12-18T07:21:48.940Z,153.97
2018-12-18T07:24:19.256Z,181.90
2018-12-18T07:26:49.560Z,232.03
2018-12-18T07:29:20.044Z,196.70
2018-12-18T07:31:51.087Z,194.83
2018-12-18T07:34:21.348Z,176.60
2018-12-18T07:36:52.188Z,171.00
2018-12-18T07:39:22.567Z,169.97
2018-12-18T07:41:53.095Z,175.50
2018-12-18T07:44:23.522Z,159.40
2018-12-18T07:46:53.797Z,202.00
2018-12-18T07:49:24.686Z,162.87
2018-12-18T07:51:54.848Z,149.23
2018-12-18T07:54:25.185Z,116.47
2018-12-18T07:56:55.553Z,100.93
2018-12-18T07:59:26.110Z,99.40
2018-12-18T08:01:56.721Z,99.07
2018-12-18T08:04:27.096Z,103.60
2018-12-18T08:06:57.401Z,145.27
2018-12-18T08:09:27.748Z,121.40
2018-12-18T08:11:58.170Z,149.93
2018-12-18T08:14:30.154Z,117.77
2018-12-18T08:17:00.435Z,114.73
2018-12-18T08:19:30.945Z,113.17
2018-12-18T08:22:01.222Z,127.93
2018-12-18T08:24:31.421Z,131.67
2018-12-18T08:27:01.536Z,139.30
2018-12-18T08:29:32.215Z,259.43
2018-12-18T08:32:02.413Z,569.17
2018-12-18T08:34:32.725Z,465.20
2018-12-18T08:37:02.441Z,243.97
2018-12-18T08:39:32.764Z,213.73
2018-12-18T08:42:03.036Z,178.77
2018-12-18T08:44:33.343Z,308.40
2018-12-18T08:47:03.677Z,236.73
2018-12-18T08:49:33.829Z,146.23
2018-12-18T08:52:04.130Z,130.90
2018-12-18T08:54:34.410Z,110.00
2018-12-18T08:57:04.669Z,101.63
2018-12-18T08:59:34.868Z,95.90
2018-12-18T09:02:05.146Z,88.80
2018-12-18T09:04:35.547Z,96.40
2018-12-18T09:07:06.002Z,145.10
2018-12-18T09:09:36.382Z,153.60
2018-12-18T09:12:06.870Z,144.30
2018-12-18T09:14:37.345Z,145.80
2018-12-18T09:17:08.560Z,123.13
2018-12-18T09:19:38.899Z,119.70
2018-12-18T09:22:09.202Z,108.43
2018-12-18T09:24:39.613Z,108.13
2018-12-18T09:27:09.885Z,80.93
2018-12-18T09:29:40.231Z,71.07
2018-12-18T09:32:10.524Z,61.97
2018-12-18T09:34:40.812Z,69.27
2018-12-18T09:37:11.110Z,70.13
2018-12-18T09:39:42.523Z,82.80
2018-12-18T09:42:17.969Z,75.30
2018-12-18T09:44:48.272Z,88.57
2018-12-18T09:47:18.585Z,85.27
2018-12-18T09:49:48.813Z,90.03
2018-12-18T09:52:19.061Z,91.87
2018-12-18T09:54:49.414Z,99.40
2018-12-18T09:58:24.318Z,72.00
2018-12-18T10:00:55.721Z,67.43
2018-12-18T10:03:25.011Z,75.87
2018-12-18T10:05:56.471Z,84.50
2018-12-18T10:08:25.715Z,66.90
2018-12-18T10:10:55.937Z,65.57
2018-12-18T10:13:26.166Z,73.33
2018-12-18T10:15:56.467Z,66.93
2018-12-18T10:18:27.030Z,65.57
2018-12-18T10:20:57.365Z,70.73
2018-12-18T10:23:27.633Z,71.23
2018-12-18T10:25:57.944Z,64.53
2018-12-18T10:28:28.148Z,73.80
2018-12-18T10:30:58.614Z,85.43
2018-12-18T10:33:28.865Z,78.60
2018-12-18T10:36:03.007Z,75.43
2018-12-18T10:38:29.500Z,73.47
2018-12-18T10:40:59.836Z,71.07
2018-12-18T10:43:30.018Z,64.97
2018-12-18T10:45:59.860Z,74.70
2018-12-18T10:48:30.024Z,76.80
2018-12-18T10:51:00.508Z,131.40
2018-12-18T10:53:30.736Z,78.50
2018-12-18T10:56:01.073Z,103.13
2018-12-18T10:58:31.285Z,160.80
2018-12-18T11:01:06.678Z,109.37
2018-12-18T11:03:37.001Z,124.27
2018-12-18T11:06:09.999Z,111.57
2018-12-18T11:08:37.701Z,104.20
2018-12-18T11:11:08.014Z,80.17
2018-12-18T11:13:38.249Z,81.93
2018-12-18T11:16:08.589Z,86.90
2018-12-18T11:18:38.806Z,85.37
2018-12-18T11:21:09.106Z,94.77
2018-12-18T11:23:39.401Z,106.93
2018-12-18T11:26:09.773Z,99.40
2018-12-18T11:28:39.985Z,82.20
2018-12-18T11:31:10.634Z,84.60
2018-12-18T11:33:40.877Z,108.20
2018-12-18T11:36:16.459Z,97.80
2018-12-18T11:38:41.684Z,87.03
2018-12-18T11:41:12.014Z,92.87
2018-12-18T11:43:42.197Z,78.93
2018-12-18T11:46:12.551Z,82.27
2018-12-18T11:48:42.851Z,77.17
2018-12-18T11:51:13.160Z,82.13
2018-12-18T11:53:43.429Z,247.13
2018-12-18T11:56:13.706Z,99.37
2018-12-18T11:58:43.976Z,82.07
2018-12-18T12:01:14.268Z,87.83
2018-12-18T12:03:44.476Z,93.07
2018-12-18T12:06:14.125Z,95.13
2018-12-18T12:08:44.297Z,107.47
2018-12-18T12:11:14.668Z,131.60
2018-12-18T12:13:44.887Z,130.47
2018-12-18T12:16:15.172Z,107.43
2018-12-18T12:18:45.573Z,105.37
2018-12-18T12:21:15.813Z,103.43
2018-12-18T12:23:46.116Z,87.67
2018-12-18T12:26:21.548Z,92.80
2018-12-18T12:28:51.791Z,95.70
2018-12-18T12:31:22.029Z,97.73
2018-12-18T12:33:52.256Z,110.60
2018-12-18T12:36:22.589Z,90.50
2018-12-18T12:38:52.905Z,126.70
2018-12-18T12:41:23.185Z,132.90
2018-12-18T12:43:53.557Z,108.63
2018-12-18T12:46:24.002Z,125.40
2018-12-18T12:48:54.823Z,157.43
2018-12-18T12:51:24.736Z,145.37
2018-12-18T12:53:54.962Z,100.67
2018-12-18T12:56:25.308Z,143.00
2018-12-18T12:58:55.578Z,144.60
2018-12-18T13:01:25.938Z,221.67
2018-12-18T13:03:56.278Z,140.03
2018-12-18T13:06:26.582Z,116.13
2018-12-18T13:08:56.970Z,116.80
2018-12-18T13:11:27.354Z,177.47
2018-12-18T13:13:57.582Z,124.90
2018-12-18T13:16:27.898Z,109.77
2018-12-18T13:18:58.165Z,99.47
2018-12-18T13:21:28.489Z,117.47
2018-12-18T13:23:58.810Z,114.97
2018-12-18T13:26:29.200Z,106.53
2018-12-18T13:28:59.006Z,117.83
2018-12-18T13:31:29.249Z,112.03
2018-12-18T13:33:59.557Z,119.80
2018-12-18T13:36:29.823Z,115.60
2018-12-18T13:39:00.145Z,112.47
2018-12-18T13:41:30.741Z,100.93
2018-12-18T13:44:00.993Z,129.43
2018-12-18T13:46:31.334Z,107.13
2018-12-18T13:49:01.668Z,93.83
2018-12-18T13:51:32.023Z,139.53
2018-12-18T13:54:02.277Z,128.07
2018-12-18T13:56:32.702Z,139.03
2018-12-18T13:59:02.917Z,135.63
2018-12-18T14:01:33.181Z,126.10
2018-12-18T14:04:03.522Z,172.43
2018-12-18T14:06:33.884Z,115.20
2018-12-18T14:09:04.453Z,118.60
2018-12-18T14:11:34.777Z,141.37
2018-12-18T14:14:05.290Z,152.07
2018-12-18T14:16:35.777Z,178.07
2018-12-18T14:19:06.004Z,172.17
2018-12-18T14:21:36.344Z,171.00
2018-12-18T14:24:06.623Z,160.17
2018-12-18T14:26:36.969Z,156.30
2018-12-18T14:29:07.160Z,151.47
2018-12-18T14:31:37.795Z,119.83
2018-12-18T14:34:08.009Z,111.40
2018-12-18T14:36:38.366Z,127.47
2018-12-18T14:39:09.008Z,125.83
2018-12-18T14:41:39.342Z,121.90
2018-12-18T14:44:09.581Z,111.03
2018-12-18T14:46:39.867Z,117.53
2018-12-18T14:49:10.072Z,114.33
2018-12-18T14:51:40.380Z,123.73
2018-12-18T14:54:10.609Z,126.50
2018-12-18T14:56:40.904Z,123.47
2018-12-18T14:59:11.217Z,124.80
2018-12-18T15:01:41.713Z,125.93
2018-12-18T15:04:12.021Z,137.17
2018-12-18T15:06:41.751Z,127.77
2018-12-18T15:09:11.872Z,119.13
2018-12-18T15:11:42.217Z,125.50
2018-12-18T15:14:12.514Z,128.80
2018-12-18T15:16:42.751Z,152.50
2018-12-18T15:19:13.066Z,173.33
2018-12-18T15:21:43.483Z,156.73
2018-12-18T15:24:13.917Z,132.67
2018-12-18T15:26:44.194Z,137.50
2018-12-18T15:29:14.426Z,131.60
2018-12-18T15:31:45.377Z,114.10
2018-12-18T15:34:15.622Z,121.30
2018-12-18T15:36:46.205Z,126.83
2018-12-18T15:39:16.538Z,119.63
2018-12-18T15:41:47.130Z,129.90
2018-12-18T15:44:17.473Z,123.73
2018-12-18T15:46:47.783Z,122.60
2018-12-18T15:49:18.081Z,122.27
2018-12-18T15:51:48.685Z,128.23
2018-12-18T15:54:18.973Z,124.97
2018-12-18T15:56:49.350Z,134.67
2018-12-18T15:59:19.650Z,118.50
2018-12-18T16:01:49.896Z,120.23
2018-12-18T16:04:20.128Z,151.77
2018-12-18T16:06:50.426Z,161.13
2018-12-18T16:09:20.598Z,129.70
2018-12-18T16:11:50.866Z,112.70
2018-12-18T16:14:21.124Z,114.47
2018-12-18T16:16:51.394Z,119.00
2018-12-18T16:19:21.795Z,124.03
2018-12-18T16:21:52.341Z,105.10
2018-12-18T16:24:23.875Z,106.70
2018-12-18T16:26:52.873Z,105.60
2018-12-18T16:29:23.265Z,119.43
2018-12-18T16:31:53.537Z,107.60
2018-12-18T16:34:23.809Z,108.63
2018-12-18T16:36:54.123Z,120.37
2018-12-18T16:39:24.393Z,155.50
2018-12-18T16:41:54.772Z,191.57
2018-12-18T16:44:25.149Z,195.60
2018-12-18T16:46:55.461Z,130.03
2018-12-18T16:49:25.785Z,129.93
2018-12-18T16:51:56.340Z,142.03
2018-12-18T16:54:26.801Z,132.60
2018-12-18T16:56:57.186Z,132.40
2018-12-18T16:59:27.461Z,156.07
2018-12-18T17:01:57.702Z,137.13
2018-12-18T17:04:27.905Z,161.87
2018-12-18T17:06:58.220Z,121.73
2018-12-18T17:09:28.590Z,135.63
2018-12-18T17:11:58.910Z,139.33
2018-12-18T17:14:29.131Z,114.93
2018-12-18T17:16:59.365Z,139.20
2018-12-18T17:19:29.610Z,157.07
2018-12-18T17:21:59.901Z,148.47
2018-12-18T17:24:30.226Z,168.70
2018-12-18T17:27:00.569Z,176.60
2018-12-18T17:29:30.168Z,167.40
2018-12-18T17:31:59.805Z,159.20
2018-12-18T17:34:30.122Z,146.73
2018-12-18T17:37:00.378Z,131.80
2018-12-18T17:39:31.594Z,134.77
2018-12-18T17:42:01.777Z,133.60
2018-12-18T17:44:31.982Z,126.00
2018-12-18T17:47:02.220Z,127.63
2018-12-18T17:49:32.416Z,146.00
2018-12-18T17:52:02.662Z,161.00
2018-12-18T17:54:32.985Z,156.43
2018-12-18T17:57:03.265Z,168.20
2018-12-18T17:59:33.587Z,200.03
2018-12-18T18:02:04.037Z,175.27
2018-12-18T18:04:34.298Z,151.63
2018-12-18T18:07:04.507Z,153.90
2018-12-18T18:09:34.842Z,164.00
2018-12-18T18:12:05.176Z,150.37
2018-12-18T18:14:36.180Z,138.93
2018-12-18T18:17:05.705Z,141.63
2018-12-18T18:19:36.061Z,149.97
2018-12-18T18:22:06.377Z,146.90
2018-12-18T18:24:36.669Z,182.40
2018-12-18T18:27:06.982Z,139.43
2018-12-18T18:29:37.405Z,158.03
2018-12-18T18:32:07.800Z,177.77
2018-12-18T18:34:38.194Z,200.67
2018-12-18T18:37:08.526Z,170.60
2018-12-18T18:39:38.773Z,154.57
2018-12-18T18:42:08.938Z,143.27
2018-12-18T18:44:39.455Z,126.40
2018-12-18T18:47:09.717Z,119.57
2018-12-18T18:49:40.054Z,147.03
2018-12-18T18:52:10.196Z,147.23
2018-12-18T18:54:40.510Z,133.00
2018-12-18T18:57:10.705Z,144.47
2018-12-18T18:59:41.055Z,153.97
2018-12-18T19:02:11.380Z,168.23
2018-12-18T19:04:41.709Z,150.20
2018-12-18T19:07:12.006Z,154.40
2018-12-18T19:09:42.353Z,151.30
2018-12-18T19:12:12.621Z,144.73
2018-12-18T19:14:43.105Z,156.83
2018-12-18T19:17:13.351Z,148.00
2018-12-18T19:19:43.705Z,154.00
2018-12-18T19:22:14.049Z,210.00
2018-12-18T19:24:44.441Z,246.27
2018-12-18T19:27:14.733Z,205.43
2018-12-18T19:29:45.078Z,164.73
2018-12-18T19:32:15.360Z,197.47
2018-12-18T19:34:45.650Z,197.30
2018-12-18T19:37:15.998Z,184.37
2018-12-18T19:39:46.461Z,193.90
2018-12-18T19:42:16.786Z,219.50
2018-12-18T19:44:47.400Z,262.47
2018-12-18T19:47:17.806Z,284.57
2018-12-18T19:49:48.156Z,272.53
2018-12-18T19:52:18.390Z,256.50
2018-12-18T19:54:48.660Z,252.30
2018-12-18T19:57:19.150Z,191.30
2018-12-18T19:59:49.498Z,186.43
2018-12-18T20:02:19.815Z,179.53
2018-12-18T20:04:50.194Z,192.07
2018-12-18T20:07:20.397Z,270.10
2018-12-18T20:09:50.708Z,328.80
2018-12-18T20:12:21.010Z,331.07
2018-12-18T20:14:51.353Z,339.40
2018-12-18T20:17:21.750Z,245.67
2018-12-18T20:19:52.138Z,238.90
2018-12-18T20:22:22.754Z,242.40
2018-12-18T20:24:53.013Z,209.37
2018-12-18T20:27:23.364Z,194.70
2018-12-18T20:29:53.794Z,184.80
2018-12-18T20:32:23.980Z,191.13
2018-12-18T20:34:54.548Z,208.70
2018-12-18T20:37:24.970Z,229.60
2018-12-18T20:39:55.434Z,244.10
2018-12-18T20:42:25.717Z,300.00
2018-12-18T20:44:56.065Z,278.50
2018-12-18T20:47:25.864Z,264.17
2018-12-18T20:49:56.255Z,220.23
2018-12-18T20:52:26.721Z,223.50
2018-12-18T20:54:57.193Z,202.40
2018-12-18T20:57:27.512Z,170.57
2018-12-18T20:59:58.021Z,157.27
2018-12-18T21:02:28.593Z,135.87
2018-12-18T21:04:59.066Z,135.50
2018-12-18T21:07:29.297Z,139.07
2018-12-18T21:09:59.838Z,139.73
2018-12-18T21:12:30.321Z,139.33
2018-12-18T21:15:00.884Z,138.20
2018-12-18T21:17:31.034Z,148.35
2018-12-18T21:20:01.541Z,123.23
2018-12-18T21:22:31.824Z,103.07
2018-12-18T21:25:02.056Z,105.03
2018-12-18T21:27:32.406Z,112.90
2018-12-18T21:30:02.874Z,106.65
2018-12-18T21:32:33.341Z,113.07
2018-12-18T21:35:03.766Z,106.40
2018-12-18T21:37:34.072Z,100.47
2018-12-18T21:40:04.658Z,103.03
2018-12-18T21:42:35.298Z,101.60
2018-12-18T21:45:05.919Z,97.97
2018-12-18T21:47:36.408Z,113.50
2018-12-18T21:50:07.067Z,128.40
2018-12-18T21:52:37.470Z,126.55
2018-12-18T21:55:07.288Z,127.60
2018-12-18T21:57:37.588Z,129.93
2018-12-18T22:00:09.545Z,139.33
2018-12-18T22:02:39.909Z,117.97
2018-12-18T22:05:10.332Z,124.67
2018-12-18T22:07:40.712Z,143.90
2018-12-18T22:10:11.105Z,141.40
2018-12-18T22:12:41.433Z,118.17
2018-12-18T22:15:11.921Z,110.83
2018-12-18T22:17:41.524Z,118.27
2018-12-18T22:20:11.753Z,114.90
2018-12-18T22:22:41.568Z,143.80
2018-12-18T22:25:11.189Z,147.97
2018-12-18T22:27:41.585Z,148.00
2018-12-18T22:30:11.500Z,142.95
2018-12-18T22:32:41.157Z,129.53
2018-12-18T22:35:11.444Z,117.70
2018-12-18T22:37:41.850Z,108.95
2018-12-18T22:40:12.314Z,98.27
2018-12-18T22:42:42.717Z,93.25
2018-12-18T22:45:13.122Z,104.58
2018-12-18T22:47:43.509Z,99.13
2018-12-18T22:50:13.980Z,106.77
2018-12-18T22:52:44.581Z,108.25
2018-12-18T22:55:15.048Z,112.57
2018-12-18T22:57:44.919Z,167.37
2018-12-18T23:00:19.225Z,179.42
2018-12-18T23:02:49.697Z,154.17
2018-12-18T23:05:20.214Z,138.52
2018-12-18T23:07:50.643Z,112.97
2018-12-18T23:10:21.135Z,106.87
2018-12-18T23:12:51.368Z,116.00
2018-12-18T23:15:21.764Z,106.45
2018-12-18T23:17:52.108Z,110.90
2018-12-18T23:20:22.381Z,114.47
2018-12-18T23:22:52.872Z,124.67
2018-12-18T23:25:23.249Z,107.67
2018-12-18T23:27:53.664Z,121.37
2018-12-18T23:30:24.117Z,119.53
2018-12-18T23:32:54.471Z,116.90
2018-12-18T23:35:25.009Z,114.92
2018-12-18T23:37:55.526Z,122.90
2018-12-18T23:40:26.005Z,125.25
2018-12-18T23:42:56.280Z,125.27
2018-12-18T23:45:26.642Z,123.42
2018-12-18T23:47:56.404Z,115.80
2018-12-18T23:50:26.832Z,144.85
2018-12-18T23:52:57.052Z,131.10
2018-12-18T23:55:27.444Z,134.70
2018-12-18T23:57:57.879Z,129.45
